Time;durP1;ratioP1;P1;durP2;ratioP2;P2;SDS_P1;SDS_P2;PMS_P1;PMS_P2;Temp;Humidity;BMP_temperature;BMP_pressure;BME280_temperature;BME280_humidity;BME280_pressure;Samples;Min_cycle;Max_cycle;Signal;HPM_P1;HPM_P2
2023/12/24 00:01:28;;;;;;;;;4.67;2.67;;;;;12.65;65.38;101348.09;4994267;28;46197;-77
2023/12/24 00:03:53;;;;;;;;;1.00;1.00;;;;;12.77;65.41;101368.28;5006630;28;45520;-78
2023/12/24 00:06:19;;;;;;;;;2.67;2.00;;;;;12.73;65.17;101364.22;4989375;28;45346;-78
2023/12/24 00:08:44;;;;;;;;;1.00;1.00;;;;;12.75;65.22;101367.59;5003909;28;46204;-78
2023/12/24 00:11:09;;;;;;;;;3.00;3.00;;;;;12.74;65.44;101365.91;4992578;28;45304;-79
2023/12/24 00:13:35;;;;;;;;;17.67;17.67;;;;;12.78;65.59;101364.63;4997673;28;45412;-78
2023/12/24 00:16:01;;;;;;;;;2.00;2.00;;;;;12.76;65.48;101350.59;5000998;28;45534;-78
2023/12/24 00:18:26;;;;;;;;;2.00;2.00;;;;;12.58;65.97;101346.97;5002463;28;46290;-79
2023/12/24 00:20:51;;;;;;;;;2.00;2.00;;;;;12.80;65.62;101370.66;4998137;28;45464;-78
2023/12/24 00:23:17;;;;;;;;;2.33;2.33;;;;;12.77;65.57;101357.63;4996398;28;45342;-77
2023/12/24 00:25:42;;;;;;;;;1.33;1.33;;;;;12.74;65.47;101348.06;4996827;28;45350;-76
2023/12/24 00:28:08;;;;;;;;;2.00;2.00;;;;;12.84;65.80;101368.56;4988884;28;46191;-77
2023/12/24 00:30:34;;;;;;;;;3.67;2.00;;;;;12.86;65.58;101367.44;4997101;28;45303;-76
2023/12/24 00:32:59;;;;;;;;;0.67;0.67;;;;;12.91;65.59;101361.66;4996736;28;45562;-77
2023/12/24 00:35:26;;;;;;;;;2.67;2.67;;;;;12.62;65.02;101311.88;4995396;28;45374;-78
2023/12/24 00:37:56;;;;;;;;;2.00;2.00;;;;;12.68;65.14;101337.13;4989790;28;45449;-77
2023/12/24 00:40:21;;;;;;;;;2.67;1.67;;;;;12.80;65.19;101357.31;4996612;28;45598;-77
2023/12/24 00:42:47;;;;;;;;;3.00;3.00;;;;;12.67;64.84;101335.47;4996170;28;45405;-77
2023/12/24 00:45:12;;;;;;;;;2.00;2.00;;;;;12.90;64.78;101368.84;4996384;28;45447;-77
2023/12/24 00:47:38;;;;;;;;;2.33;2.33;;;;;12.75;64.94;101328.41;4995920;28;46153;-77
2023/12/24 00:50:07;;;;;;;;;3.00;1.67;;;;;12.80;64.79;101346.66;4996435;28;45466;-77
2023/12/24 00:52:33;;;;;;;;;1.67;1.67;;;;;12.76;64.89;101335.44;4995923;28;45680;-78
2023/12/24 00:54:59;;;;;;;;;2.67;1.67;;;;;12.89;64.71;101345.81;4996708;28;45458;-78
2023/12/24 00:57:24;;;;;;;;;2.00;2.00;;;;;12.49;64.64;101261.50;4995514;28;46178;-78
2023/12/24 00:59:49;;;;;;;;;0.67;0.67;;;;;12.90;64.99;101326.13;4995298;28;45383;-77
2023/12/24 01:02:15;;;;;;;;;1.67;1.67;;;;;12.82;64.66;101333.19;4995978;28;45375;-79
2023/12/24 01:04:40;;;;;;;;;1.00;1.00;;;;;12.72;65.19;101318.03;4995130;28;45514;-76
2023/12/24 01:07:05;;;;;;;;;1.67;1.67;;;;;12.74;64.86;101316.06;4996183;28;45334;-78
2023/12/24 01:09:31;;;;;;;;;0.00;0.00;;;;;12.72;64.93;101306.53;4995869;28;45490;-76
2023/12/24 01:11:56;;;;;;;;;6.33;4.00;;;;;12.80;64.68;101333.31;4988647;28;45745;-77
2023/12/24 01:14:21;;;;;;;;;2.00;2.00;;;;;12.68;65.22;101310.47;4996518;28;45555;-76
2023/12/24 01:16:47;;;;;;;;;0.67;0.67;;;;;12.84;64.81;101337.41;4994067;28;45377;-78
2023/12/24 01:19:12;;;;;;;;;2.00;2.00;;;;;12.78;64.84;101327.28;4996424;28;45452;-77
2023/12/24 01:21:38;;;;;;;;;2.67;2.00;;;;;12.81;65.28;101337.66;4996907;28;45271;-77
2023/12/24 01:24:04;;;;;;;;;1.33;1.33;;;;;12.31;65.25;101259.72;4997258;28;45602;-77
2023/12/24 01:26:29;;;;;;;;;1.25;1.25;;;;;12.71;64.87;101326.19;4989327;28;46647;-77
2023/12/24 01:28:55;;;;;;;;;2.00;2.00;;;;;12.74;65.09;101326.72;4997536;28;45414;-77
2023/12/24 01:31:20;;;;;;;;;1.00;1.00;;;;;12.76;64.85;101329.25;4999261;28;45291;-77
2023/12/24 01:33:46;;;;;;;;;2.67;1.67;;;;;12.75;65.10;101328.41;4995957;28;45401;-78
2023/12/24 01:36:11;;;;;;;;;1.75;1.75;;;;;12.63;65.10;101323.41;4995961;28;45544;-77
2023/12/24 01:38:36;;;;;;;;;2.00;2.00;;;;;12.78;64.94;101340.63;4995434;28;45452;-78
2023/12/24 01:41:02;;;;;;;;;2.00;2.00;;;;;12.70;65.11;101321.81;4995455;28;45312;-78
2023/12/24 01:43:27;;;;;;;;;1.00;1.00;;;;;12.77;65.09;101328.25;4995340;28;45542;-77
2023/12/24 01:45:53;;;;;;;;;1.00;1.00;;;;;12.67;65.01;101322.13;4994737;28;45505;-77
2023/12/24 01:48:20;;;;;;;;;2.00;2.00;;;;;12.52;64.41;101288.88;4995524;28;45555;-76
2023/12/24 01:50:47;;;;;;;;;1.67;1.67;;;;;12.60;64.67;101337.00;4995058;28;45484;-77
2023/12/24 01:53:15;;;;;;;;;2.00;2.00;;;;;12.37;64.56;101294.63;4996009;28;45240;-78
2023/12/24 01:55:41;;;;;;;;;2.33;1.00;;;;;12.68;64.15;101339.81;4995528;28;46231;-76
2023/12/24 01:58:07;;;;;;;;;2.00;1.00;;;;;11.90;64.78;101210.25;4994308;28;45325;-77
2023/12/24 02:00:32;;;;;;;;;0.00;0.00;;;;;12.70;64.08;101340.50;4995339;28;45336;-77
2023/12/24 02:03:00;;;;;;;;;1.67;0.67;;;;;12.67;64.11;101338.97;4995107;28;45437;-76
2023/12/24 02:05:26;;;;;;;;;2.00;1.00;;;;;12.46;64.15;101285.81;4994515;28;47785;-77
2023/12/24 02:07:51;;;;;;;;;0.67;0.67;;;;;12.72;63.82;101323.38;4994507;28;45378;-75
2023/12/24 02:10:18;;;;;;;;;1.00;1.00;;;;;12.56;63.96;101301.78;4993587;28;46245;-76
2023/12/24 02:12:44;;;;;;;;;1.00;1.00;;;;;12.67;63.84;101314.97;4994946;28;45725;-76
2023/12/24 02:15:11;;;;;;;;;0.33;0.33;;;;;12.41;64.04;101276.53;4994340;28;45516;-77
2023/12/24 02:17:38;;;;;;;;;0.50;0.50;;;;;12.46;63.69;101284.97;4995129;28;45347;-76
2023/12/24 02:20:04;;;;;;;;;1.00;1.00;;;;;12.71;63.79;101318.19;4995508;28;45423;-77
2023/12/24 02:22:30;;;;;;;;;1.00;1.00;;;;;12.35;63.82;101256.63;4995813;28;45598;-78
2023/12/24 02:24:56;;;;;;;;;1.00;1.00;;;;;12.71;63.55;101296.84;4985988;28;47406;-76
2023/12/24 02:27:37;;;;;;;;;1.00;1.00;;;;;12.69;63.77;101298.81;4994663;28;45463;-78
2023/12/24 02:30:07;;;;;;;;;0.00;0.00;;;;;12.63;63.93;101278.06;4993713;28;45446;-76
2023/12/24 02:32:36;;;;;;;;;3.00;3.00;;;;;12.63;63.66;101286.06;4999626;28;45474;-76
2023/12/24 02:35:03;;;;;;;;;1.00;1.00;;;;;12.61;63.79;101272.00;4990947;28;47989;-77
2023/12/24 02:37:30;;;;;;;;;0.00;0.00;;;;;12.60;64.36;101289.81;5007792;28;45451;-76
2023/12/24 02:39:56;;;;;;;;;0.67;0.67;;;;;12.58;64.13;101299.78;5011979;28;45475;-77
2023/12/24 02:42:21;;;;;;;;;0.67;0.67;;;;;12.47;64.26;101291.97;4997488;28;45347;-77
2023/12/24 02:44:46;;;;;;;;;2.00;1.00;;;;;12.58;64.61;101309.63;4997031;28;46443;-78
2023/12/24 02:47:12;;;;;;;;;2.00;1.00;;;;;12.52;64.45;101297.72;4995254;28;45397;-78
2023/12/24 02:49:37;;;;;;;;;0.00;0.00;;;;;12.58;64.62;101317.63;5009786;28;45474;-78
2023/12/24 02:52:04;;;;;;;;;8.00;5.00;;;;;12.48;64.30;101294.50;4993960;28;45425;-77
2023/12/24 02:54:29;;;;;;;;;3.00;1.67;;;;;12.63;64.46;101326.91;5008940;28;46612;-78
2023/12/24 02:56:54;;;;;;;;;0.75;0.75;;;;;12.62;64.64;101316.38;4993708;28;45335;-77
2023/12/24 02:59:20;;;;;;;;;2.00;1.00;;;;;12.42;64.03;101281.75;4986689;28;45648;-77
2023/12/24 03:01:45;;;;;;;;;1.67;1.67;;;;;12.55;64.67;101277.91;4994235;28;45398;-76
2023/12/24 03:04:11;;;;;;;;;2.00;1.00;;;;;12.37;65.50;101265.31;4994440;28;45467;-76
2023/12/24 03:06:36;;;;;;;;;1.75;1.00;;;;;12.44;64.96;101278.94;4993998;28;45430;-76
2023/12/24 03:09:02;;;;;;;;;1.00;1.00;;;;;12.43;65.32;101288.75;4993944;28;45500;-78
2023/12/24 03:11:27;;;;;;;;;0.00;0.00;;;;;12.42;65.67;101281.75;4987176;28;45434;-77
2023/12/24 03:13:53;;;;;;;;;1.00;1.00;;;;;12.40;65.75;101283.69;4993676;28;45259;-76
2023/12/24 03:16:18;;;;;;;;;2.00;0.00;;;;;12.42;65.72;101284.41;4993549;28;45639;-78
2023/12/24 03:18:43;;;;;;;;;0.00;0.00;;;;;12.40;65.74;101270.34;4994041;28;45495;-78
2023/12/24 03:21:09;;;;;;;;;1.00;1.00;;;;;12.39;65.23;101273.16;4994367;28;45367;-75
2023/12/24 03:23:35;;;;;;;;;0.00;0.00;;;;;12.35;65.36;101285.09;4994620;28;46048;-78
2023/12/24 03:26:01;;;;;;;;;0.00;0.00;;;;;12.36;65.88;101284.97;4992955;28;45501;-76
2023/12/24 03:28:26;;;;;;;;;0.00;0.00;;;;;12.18;65.51;101268.84;4993200;28;45664;-76
2023/12/24 03:30:51;;;;;;;;;0.00;0.00;;;;;12.31;65.57;101268.56;4995622;28;45415;-78
2023/12/24 03:33:17;;;;;;;;;0.00;0.00;;;;;12.30;65.61;101256.22;4996313;28;45899;-76
2023/12/24 03:35:43;;;;;;;;;0.00;0.00;;;;;12.38;65.72;101247.47;4993707;28;45520;-78
2023/12/24 03:38:08;;;;;;;;;1.00;1.00;;;;;12.34;65.93;101238.09;4993244;28;45462;-76
2023/12/24 03:40:34;;;;;;;;;1.25;1.00;;;;;12.18;65.93;101222.69;4991523;28;45245;-76
2023/12/24 03:42:59;;;;;;;;;2.00;2.00;;;;;12.19;65.96;101237.69;4991984;28;45797;-76
2023/12/24 03:45:24;;;;;;;;;0.00;0.00;;;;;12.27;65.78;101237.00;4996663;28;45533;-76
2023/12/24 03:47:50;;;;;;;;;1.00;1.00;;;;;12.25;66.12;101217.63;4996647;28;45568;-78
2023/12/24 03:50:15;;;;;;;;;1.00;1.00;;;;;12.26;66.32;101224.66;4997091;28;45225;-76
2023/12/24 03:52:41;;;;;;;;;2.00;0.67;;;;;12.16;65.95;101211.31;4995226;28;47474;-77
2023/12/24 03:55:06;;;;;;;;;1.00;1.00;;;;;12.26;65.68;101241.47;4997066;28;45586;-77
2023/12/24 03:57:31;;;;;;;;;0.33;0.33;;;;;12.29;65.82;101256.34;4987112;28;45718;-76
2023/12/24 03:59:57;;;;;;;;;1.00;1.00;;;;;12.15;66.05;101231.81;4996640;28;45666;-77
2023/12/24 04:02:24;;;;;;;;;0.50;0.50;;;;;12.34;65.93;101254.09;4996763;28;45648;-79
2023/12/24 04:04:50;;;;;;;;;1.00;1.00;;;;;12.09;66.24;101218.22;4996621;28;45396;-76
2023/12/24 04:07:16;;;;;;;;;1.00;1.00;;;;;12.20;66.20;101244.69;4996181;28;45434;-77
2023/12/24 04:09:42;;;;;;;;;1.00;1.00;;;;;12.16;66.00;101238.81;4996642;28;45352;-76
2023/12/24 04:12:08;;;;;;;;;1.00;1.00;;;;;12.14;66.46;101240.78;4996216;28;45466;-77
2023/12/24 04:14:38;;;;;;;;;2.00;2.00;;;;;12.23;66.31;101247.09;5011892;28;45629;-77
2023/12/24 04:17:04;;;;;;;;;2.00;0.50;;;;;12.15;66.19;101233.63;4996672;28;45388;-76
2023/12/24 04:19:30;;;;;;;;;1.50;0.00;;;;;12.22;66.11;101241.91;4996595;28;45363;-77
2023/12/24 04:21:55;;;;;;;;;0.67;0.67;;;;;11.63;65.97;101131.84;4996207;28;46034;-78
2023/12/24 04:24:20;;;;;;;;;2.00;1.00;;;;;12.13;65.79;101223.13;4996022;28;45383;-77
2023/12/24 04:26:46;;;;;;;;;1.00;1.00;;;;;12.03;66.13;101194.81;4996757;28;45455;-78
2023/12/24 04:29:11;;;;;;;;;1.00;1.00;;;;;12.12;66.46;101204.59;4996642;28;45396;-76
2023/12/24 04:31:39;;;;;;;;;1.00;1.00;;;;;12.00;65.93;101192.41;4995157;28;46072;-77
2023/12/24 04:34:06;;;;;;;;;1.00;1.00;;;;;12.03;66.21;101205.47;4996212;28;45414;-77
2023/12/24 04:36:33;;;;;;;;;1.33;1.33;;;;;11.72;66.46;101140.81;4996670;28;45288;-76
2023/12/24 04:38:58;;;;;;;;;1.00;1.00;;;;;11.97;66.55;101172.22;4997051;28;45691;-78
2023/12/24 04:41:23;;;;;;;;;1.00;1.00;;;;;11.52;66.68;101114.19;4995512;28;45939;-76
2023/12/24 04:43:49;;;;;;;;;0.67;0.67;;;;;11.83;67.09;101159.34;4995664;28;45446;-77
2023/12/24 04:46:14;;;;;;;;;3.00;2.00;;;;;11.78;67.65;101157.09;4997400;28;45845;-77
2023/12/24 04:48:40;;;;;;;;;2.67;1.00;;;;;11.74;67.47;101161.00;4997693;28;45448;-78
2023/12/24 04:51:05;;;;;;;;;2.00;1.00;;;;;11.70;67.58;101170.25;4997956;28;46187;-77
2023/12/24 04:53:31;;;;;;;;;1.00;1.00;;;;;11.67;68.06;101159.88;4996906;28;45469;-78
2023/12/24 04:55:56;;;;;;;;;3.00;1.00;;;;;11.44;67.91;101138.03;4996543;28;45490;-76
2023/12/24 04:58:22;;;;;;;;;1.67;1.67;;;;;11.58;68.03;101171.38;4994763;28;45700;-76
2023/12/24 05:00:47;;;;;;;;;4.00;2.33;;;;;11.63;68.20;101168.31;4995921;28;46211;-76
2023/12/24 05:03:12;;;;;;;;;2.25;1.00;;;;;11.57;67.75;101161.69;4988258;28;45615;-77
2023/12/24 05:05:38;;;;;;;;;2.00;1.00;;;;;11.44;67.60;101151.34;5008412;28;45288;-77
2023/12/24 05:08:03;;;;;;;;;1.00;1.00;;;;;11.57;67.74;101181.19;4992404;28;45711;-78
2023/12/24 05:10:29;;;;;;;;;3.00;1.00;;;;;11.43;68.02;101149.66;4991990;28;45894;-76
2023/12/24 05:12:55;;;;;;;;;1.33;1.33;;;;;11.48;68.38;101171.38;4987309;28;45455;-77
2023/12/24 05:15:20;;;;;;;;;1.33;1.33;;;;;11.53;67.91;101189.59;4996238;28;45271;-76
2023/12/24 05:17:45;;;;;;;;;1.00;1.00;;;;;11.49;67.76;101188.19;4995417;28;45261;-78
2023/12/24 05:20:11;;;;;;;;;2.00;2.00;;;;;11.56;67.65;101187.47;4995476;28;46402;-78
2023/12/24 05:22:36;;;;;;;;;1.33;1.00;;;;;11.60;67.36;101212.00;4988148;28;45477;-76
2023/12/24 05:25:03;;;;;;;;;1.00;1.00;;;;;11.39;67.51;101182.84;4995750;28;45450;-78
2023/12/24 05:27:28;;;;;;;;;2.00;1.00;;;;;11.45;67.97;101184.13;4995587;28;45497;-77
2023/12/24 05:29:54;;;;;;;;;3.67;3.67;;;;;11.50;67.25;101192.53;4995265;28;46993;-78
2023/12/24 05:32:19;;;;;;;;;6.00;2.33;;;;;11.45;67.85;101169.00;4994220;28;45702;-78
2023/12/24 05:34:45;;;;;;;;;1.67;1.67;;;;;11.55;67.94;101177.81;4994928;28;45327;-78
2023/12/24 05:37:11;;;;;;;;;3.67;3.67;;;;;11.47;67.88;101174.19;4988773;28;45450;-77
2023/12/24 05:39:40;;;;;;;;;5.50;2.50;;;;;11.46;67.73;101151.19;4994991;28;46025;-76
2023/12/24 05:42:06;;;;;;;;;2.33;2.33;;;;;11.45;68.00;101152.19;4994397;28;45438;-75
2023/12/24 05:44:34;;;;;;;;;2.00;1.33;;;;;11.59;67.68;101159.72;4995762;28;45634;-78
2023/12/24 05:46:59;;;;;;;;;6.00;3.67;;;;;11.45;67.85;101133.53;4995742;28;45546;-77
2023/12/24 05:49:24;;;;;;;;;7.33;2.00;;;;;11.54;67.78;101143.34;4995520;28;46096;-77
2023/12/24 05:51:49;;;;;;;;;2.67;1.00;;;;;11.61;68.17;101143.59;4995443;28;45466;-77
2023/12/24 05:54:15;;;;;;;;;1.67;1.67;;;;;11.61;68.23;101138.28;4992791;28;45489;-77
2023/12/24 05:56:40;;;;;;;;;1.00;1.00;;;;;11.57;68.17;101121.75;4990018;28;45515;-76
2023/12/24 05:59:06;;;;;;;;;1.00;1.00;;;;;11.68;67.72;101136.75;4992808;28;46996;-77
2023/12/24 06:01:31;;;;;;;;;3.67;2.00;;;;;11.72;67.57;101131.00;4994720;28;45414;-77
2023/12/24 06:03:56;;;;;;;;;3.00;2.00;;;;;11.76;67.98;101134.22;5009667;28;45502;-78
2023/12/24 06:06:22;;;;;;;;;1.50;0.50;;;;;11.60;67.76;101105.47;4994712;28;45536;-76
2023/12/24 06:08:47;;;;;;;;;2.33;1.67;;;;;11.79;68.13;101133.94;4994492;28;46120;-77
2023/12/24 06:11:16;;;;;;;;;4.67;2.00;;;;;11.59;68.11;101104.66;4997445;28;45441;-77
2023/12/24 06:13:42;;;;;;;;;5.00;3.00;;;;;11.64;68.19;101106.06;4998537;28;45479;-78
2023/12/24 06:16:08;;;;;;;;;4.33;1.33;;;;;11.77;67.70;101143.88;4998494;28;45292;-77
2023/12/24 06:18:33;;;;;;;;;3.33;1.00;;;;;11.81;68.10;101132.84;5000805;28;47080;-79
2023/12/24 06:20:58;;;;;;;;;3.33;3.33;;;;;11.84;68.25;101121.91;4997602;28;45241;-77
2023/12/24 06:23:24;;;;;;;;;2.00;2.00;;;;;11.85;68.32;101126.25;4978843;28;45510;-78
2023/12/24 06:25:49;;;;;;;;;1.50;1.00;;;;;11.87;67.87;101115.44;4994958;28;45576;-77
2023/12/24 06:28:14;;;;;;;;;1.75;1.75;;;;;11.80;67.44;101117.00;4993862;28;46031;-76
2023/12/24 06:30:40;;;;;;;;;3.00;1.00;;;;;11.74;67.91;101107.72;4995018;28;45272;-78
2023/12/24 06:33:05;;;;;;;;;3.33;1.00;;;;;11.63;67.86;101091.91;4995287;28;45411;-77
2023/12/24 06:35:31;;;;;;;;;4.00;2.33;;;;;11.70;67.70;101119.66;4994917;28;45322;-77
2023/12/24 06:37:57;;;;;;;;;2.75;1.00;;;;;11.79;68.20;101137.47;4994445;28;45456;-75
2023/12/24 06:40:22;;;;;;;;;3.00;1.75;;;;;11.69;68.04;101120.63;4994357;28;45401;-78
2023/12/24 06:42:48;;;;;;;;;2.00;2.00;;;;;11.63;67.68;101099.91;4993734;28;45458;-77
2023/12/24 06:45:13;;;;;;;;;1.00;1.00;;;;;11.78;67.91;101124.25;4992635;28;45608;-77
2023/12/24 06:47:39;;;;;;;;;1.67;1.00;;;;;11.71;68.12;101124.00;4992864;28;45949;-78
2023/12/24 06:50:05;;;;;;;;;3.67;2.00;;;;;11.42;68.11;101092.06;4993470;28;45343;-75
2023/12/24 06:52:32;;;;;;;;;2.00;1.67;;;;;11.60;68.59;101102.81;4993776;28;45672;-77
2023/12/24 06:54:58;;;;;;;;;4.00;1.00;;;;;11.60;68.38;101105.47;5010786;28;45545;-78
2023/12/24 06:57:23;;;;;;;;;3.00;1.00;;;;;11.58;68.52;101112.78;5003439;28;45863;-74
2023/12/24 06:59:49;;;;;;;;;1.33;0.33;;;;;11.65;68.44;101116.56;4997232;28;45579;-76
2023/12/24 07:02:15;;;;;;;;;4.67;2.67;;;;;11.45;68.38;101083.81;4994265;28;45464;-78
2023/12/24 07:04:40;;;;;;;;;5.00;2.33;;;;;11.47;69.00;101088.97;4993220;28;45461;-76
2023/12/24 07:07:06;;;;;;;;;2.00;2.00;;;;;11.39;68.92;101070.19;4994358;28;45489;-78
2023/12/24 07:09:32;;;;;;;;;4.67;3.00;;;;;11.73;68.71;101138.00;4993427;28;45625;-77
2023/12/24 07:11:57;;;;;;;;;3.00;3.00;;;;;11.68;68.86;101128.75;4994242;28;45356;-76
2023/12/24 07:14:22;;;;;;;;;2.00;2.00;;;;;11.71;68.60;101123.16;4992621;28;45408;-77
2023/12/24 07:16:48;;;;;;;;;3.67;2.00;;;;;11.64;68.96;101130.88;4992735;28;45539;-77
2023/12/24 07:19:13;;;;;;;;;3.33;2.33;;;;;11.72;68.71;101139.00;4994687;28;45402;-76
2023/12/24 07:21:39;;;;;;;;;3.67;3.00;;;;;11.72;69.27;101133.66;4994322;28;45680;-77
2023/12/24 07:24:05;;;;;;;;;3.67;2.00;;;;;11.74;68.57;101131.69;4993851;28;45427;-77
2023/12/24 07:26:30;;;;;;;;;2.67;1.00;;;;;11.77;69.46;101139.41;4993495;28;46158;-76
2023/12/24 07:28:56;;;;;;;;;3.33;2.67;;;;;11.77;69.30;101135.88;4992733;28;45375;-76
2023/12/24 07:31:21;;;;;;;;;2.00;2.00;;;;;11.69;69.13;101125.97;5005883;28;45448;-78
2023/12/24 07:33:46;;;;;;;;;1.00;1.00;;;;;11.74;69.18;101133.50;4991248;28;45241;-77
2023/12/24 07:36:12;;;;;;;;;2.67;2.00;;;;;11.75;69.32;101132.53;4993442;28;45944;-76
2023/12/24 07:38:37;;;;;;;;;2.33;2.00;;;;;11.76;69.44;101127.06;4994059;28;45355;-78
2023/12/24 07:41:03;;;;;;;;;1.00;0.00;;;;;11.76;69.92;101124.41;4993629;28;45344;-78
2023/12/24 07:43:29;;;;;;;;;1.67;1.00;;;;;11.78;69.65;101125.13;4994279;28;45578;-79
2023/12/24 07:45:54;;;;;;;;;5.33;3.67;;;;;11.81;69.57;101130.19;4993506;28;45517;-76
2023/12/24 07:48:19;;;;;;;;;2.00;2.00;;;;;11.79;69.93;101116.16;4993653;28;45475;-78
2023/12/24 07:50:45;;;;;;;;;1.00;1.00;;;;;11.82;70.19;101118.56;4993102;28;45414;-77
2023/12/24 07:53:10;;;;;;;;;5.00;3.00;;;;;11.64;70.13;101095.41;4993327;28;45634;-78
2023/12/24 07:55:36;;;;;;;;;6.00;1.67;;;;;11.80;70.71;101128.47;4993448;28;46255;-78
2023/12/24 07:58:01;;;;;;;;;5.33;3.00;;;;;11.82;70.77;101131.88;4984915;28;45388;-76
2023/12/24 08:00:26;;;;;;;;;2.00;2.00;;;;;11.84;70.60;101124.56;4994032;28;45828;-77
2023/12/24 08:02:52;;;;;;;;;3.67;3.00;;;;;11.67;71.03;101109.28;4993599;28;45481;-78
2023/12/24 08:05:18;;;;;;;;;4.33;3.00;;;;;11.88;70.88;101136.63;4991673;28;46180;-80
2023/12/24 08:07:43;;;;;;;;;4.00;3.00;;;;;11.50;70.59;101068.22;4994876;28;45359;-78
2023/12/24 08:10:09;;;;;;;;;3.00;2.33;;;;;11.87;70.30;101126.94;4999368;28;45559;-76
2023/12/24 08:12:34;;;;;;;;;2.00;2.00;;;;;11.58;70.33;101075.50;5008511;28;45390;-75
2023/12/24 08:14:59;;;;;;;;;1.33;1.33;;;;;11.72;70.64;101115.00;5000988;28;46260;-77
2023/12/24 08:17:25;;;;;;;;;2.00;2.00;;;;;11.85;70.23;101130.75;4986097;28;45664;-78
2023/12/24 08:19:50;;;;;;;;;4.00;3.33;;;;;11.91;70.29;101129.31;4993390;28;45747;-78
2023/12/24 08:22:15;;;;;;;;;3.67;2.00;;;;;11.73;69.93;101108.69;4993706;28;45422;-77
2023/12/24 08:24:41;;;;;;;;;2.00;2.00;;;;;11.67;70.14;101103.94;4992664;28;45602;-78
2023/12/24 08:27:06;;;;;;;;;2.00;1.00;;;;;11.39;69.83;101051.56;4995019;28;45356;-76
2023/12/24 08:29:35;;;;;;;;;4.00;2.67;;;;;11.77;69.42;101109.25;4996409;28;45728;-78
2023/12/24 08:32:00;;;;;;;;;3.00;1.33;;;;;11.88;69.40;101139.28;4997092;28;45478;-79
2023/12/24 08:34:26;;;;;;;;;3.75;2.00;;;;;12.02;68.90;101153.16;5011971;28;45527;-76
2023/12/24 08:36:51;;;;;;;;;6.33;2.67;;;;;12.03;69.13;101146.84;4989789;28;45520;-77
2023/12/24 08:39:16;;;;;;;;;14.67;13.00;;;;;12.02;68.65;101147.81;4996646;28;45382;-78
2023/12/24 08:41:42;;;;;;;;;6.00;3.00;;;;;11.85;68.96;101126.25;4996701;28;45515;-78
2023/12/24 08:44:07;;;;;;;;;1.00;1.00;;;;;11.98;68.38;101151.75;4995682;28;45366;-78
2023/12/24 08:46:33;;;;;;;;;6.67;3.33;;;;;11.85;68.80;101128.06;4998137;28;45351;-79
2023/12/24 08:48:59;;;;;;;;;3.67;2.00;;;;;12.05;68.46;101156.38;4996455;28;45434;-79
2023/12/24 08:51:24;;;;;;;;;2.33;1.33;;;;;12.08;68.08;101153.41;4996404;28;45346;-76
2023/12/24 08:53:49;;;;;;;;;2.33;2.33;;;;;12.06;68.40;101149.22;5011038;28;46070;-78
2023/12/24 08:56:15;;;;;;;;;3.33;2.33;;;;;12.15;68.15;101159.00;4996596;28;45415;-77
2023/12/24 08:58:40;;;;;;;;;3.33;3.00;;;;;12.21;68.00;101149.56;4996079;28;45424;-76
2023/12/24 09:01:05;;;;;;;;;3.00;1.00;;;;;12.23;68.18;101160.97;4996796;28;45494;-77
2023/12/24 09:03:31;;;;;;;;;1.00;1.00;;;;;12.18;67.56;101143.56;4996046;28;46010;-78
2023/12/24 09:05:56;;;;;;;;;2.00;1.67;;;;;12.06;67.70;101112.75;5002510;28;45559;-78
2023/12/24 09:08:21;;;;;;;;;1.33;1.00;;;;;12.02;67.40;101110.53;4997915;28;45601;-79
2023/12/24 09:10:47;;;;;;;;;2.00;2.00;;;;;12.26;68.00;101152.66;4997715;28;45491;-76
2023/12/24 09:13:12;;;;;;;;;3.00;1.50;;;;;12.26;67.84;101153.50;4996457;28;45394;-77
2023/12/24 09:15:38;;;;;;;;;0.00;0.00;;;;;12.22;67.85;101149.47;4996054;28;45702;-76
2023/12/24 09:18:03;;;;;;;;;3.67;2.00;;;;;12.33;67.59;101151.94;4995624;28;46798;-76
2023/12/24 09:20:29;;;;;;;;;3.00;2.00;;;;;12.13;67.70;101129.00;4995826;28;45359;-79
2023/12/24 09:22:54;;;;;;;;;0.33;0.33;;;;;12.32;67.27;101157.41;4996758;28;46819;-78
2023/12/24 09:25:19;;;;;;;;;6.00;2.00;;;;;12.24;67.37;101139.50;4997196;28;44749;-79
2023/12/24 09:27:45;;;;;;;;;3.33;2.33;;;;;11.97;67.00;101086.94;4995880;28;45543;-78
2023/12/24 09:30:11;;;;;;;;;1.00;1.00;;;;;12.51;67.08;101165.34;4996611;28;45494;-78
2023/12/24 09:32:37;;;;;;;;;2.33;2.00;;;;;12.52;66.94;101161.69;4996237;28;45534;-76
2023/12/24 09:35:03;;;;;;;;;2.00;1.67;;;;;12.60;66.75;101168.94;4995584;28;45476;-78
2023/12/24 09:37:31;;;;;;;;;3.75;2.00;;;;;12.56;66.80;101152.41;4996703;28;45467;-79
2023/12/24 09:39:56;;;;;;;;;6.00;2.00;;;;;12.26;66.08;101102.84;5000586;28;45367;-78
2023/12/24 09:42:22;;;;;;;;;3.25;2.00;;;;;12.57;66.67;101154.09;4995358;28;46378;-78
2023/12/24 09:44:48;;;;;;;;;4.00;3.00;;;;;12.35;66.21;101111.78;5005600;28;45283;-77
2023/12/24 09:47:13;;;;;;;;;3.67;2.00;;;;;12.72;66.33;101157.13;4993860;28;45330;-77
2023/12/24 09:49:38;;;;;;;;;4.00;0.75;;;;;12.58;66.08;101123.75;4994135;28;45285;-76
2023/12/24 09:52:05;;;;;;;;;1.67;1.33;;;;;12.78;65.95;101149.34;5004893;28;52872;-77
2023/12/24 09:54:31;;;;;;;;;3.33;1.67;;;;;12.14;66.19;101035.56;4998471;28;45362;-77
2023/12/24 09:57:01;;;;;;;;;1.00;1.00;;;;;12.43;65.28;101072.75;5000559;28;45487;-78
2023/12/24 09:59:26;;;;;;;;;5.00;2.33;;;;;12.92;65.25;101145.34;5001614;28;45372;-78
2023/12/24 10:01:52;;;;;;;;;4.67;1.00;;;;;12.69;65.47;101114.72;4990899;28;46286;-77
2023/12/24 10:04:17;;;;;;;;;2.33;2.00;;;;;12.24;65.20;101037.34;4997649;28;45306;-77
2023/12/24 10:06:57;;;;;;;;;0.67;0.67;;;;;12.28;65.72;101052.91;4998207;28;45524;-78
2023/12/24 10:09:24;;;;;;;;;4.67;2.67;;;;;12.82;65.79;101147.25;4987741;28;45561;-79
2023/12/24 10:12:05;;;;;;;;;5.33;2.33;;;;;12.87;65.69;101154.81;4997147;28;45365;-76
2023/12/24 10:14:31;;;;;;;;;3.33;1.67;;;;;12.61;65.69;101114.63;4997108;28;45387;-79
2023/12/24 10:16:59;;;;;;;;;3.00;0.67;;;;;12.63;65.67;101131.34;4997804;28;45464;-77
2023/12/24 10:19:25;;;;;;;;;3.33;3.00;;;;;12.95;65.36;101168.22;5001153;28;45410;-77
2023/12/24 10:22:06;;;;;;;;;5.50;3.25;;;;;12.90;65.60;101165.16;5003619;28;46160;-79
2023/12/24 10:24:35;;;;;;;;;2.00;0.67;;;;;12.90;66.21;101175.84;5000927;28;45518;-78
2023/12/24 10:27:11;;;;;;;;;2.33;1.33;;;;;12.97;65.38;101169.75;5004242;28;45419;-78
2023/12/24 10:29:40;;;;;;;;;6.00;5.00;;;;;12.92;65.25;101136.50;4998921;28;45283;-77
2023/12/24 10:32:09;;;;;;;;;5.00;3.67;;;;;12.79;65.79;101115.50;4996880;28;46114;-79
2023/12/24 10:34:35;;;;;;;;;2.50;1.50;;;;;13.04;65.43;101148.66;4995704;28;45713;-76
2023/12/24 10:37:17;;;;;;;;;4.67;2.00;;;;;13.08;65.30;101142.03;4995573;28;45612;-77
2023/12/24 10:39:43;;;;;;;;;2.00;1.50;;;;;13.08;65.42;101140.19;4995514;28;45458;-78
2023/12/24 10:42:08;;;;;;;;;4.25;1.50;;;;;13.13;65.76;101144.25;4994178;28;46009;-76
2023/12/24 10:44:34;;;;;;;;;4.33;3.67;;;;;12.77;65.31;101085.47;4994251;28;45407;-76
2023/12/24 10:46:59;;;;;;;;;1.50;1.50;;;;;13.13;65.04;101136.22;4995075;28;45424;-77
2023/12/24 10:49:24;;;;;;;;;3.67;2.67;;;;;12.78;65.45;101079.97;4995425;28;45377;-78
2023/12/24 10:51:50;;;;;;;;;3.33;2.33;;;;;12.91;65.14;101082.28;4995121;28;46126;-78
2023/12/24 10:54:15;;;;;;;;;3.67;2.00;;;;;12.53;64.97;101002.50;4995640;28;45291;-77
2023/12/24 10:56:50;;;;;;;;;2.00;1.00;;;;;13.38;65.22;101128.34;4994762;28;45355;-79
2023/12/24 10:59:26;;;;;;;;;2.25;1.25;;;;;13.32;64.52;101101.41;4989911;28;45628;-78
2023/12/24 11:01:54;;;;;;;;;3.33;2.33;;;;;13.47;64.65;101137.28;4993642;28;46586;-76
2023/12/24 11:04:45;;;;;;;;;2.67;2.67;;;;;13.52;64.75;101143.00;4995510;28;45377;-77
2023/12/24 11:07:33;;;;;;;;;1.00;1.00;;;;;13.44;64.65;101121.56;4987628;28;45422;-78
2023/12/24 11:10:05;;;;;;;;;2.25;2.25;;;;;13.01;64.64;101061.72;4994586;28;45560;-80
2023/12/24 11:12:31;;;;;;;;;4.25;2.50;;;;;13.37;64.96;101104.44;4994795;28;45354;-78
2023/12/24 11:15:00;;;;;;;;;5.50;1.75;;;;;13.32;65.16;101102.25;5008141;28;45475;-80
2023/12/24 11:17:38;;;;;;;;;4.00;1.50;;;;;13.41;65.25;101111.16;4995952;28;45469;-78
2023/12/24 11:20:22;;;;;;;;;1.00;0.75;;;;;13.49;64.82;101107.75;4996371;28;45453;-78